createdAt,value
2019-05-07T00:00:37.821Z,1006.71
2019-05-07T00:01:37.829Z,1006.74
2019-05-07T00:02:37.809Z,1006.73
2019-05-07T00:03:37.806Z,1006.69
2019-05-07T00:04:37.801Z,1006.71
2019-05-07T00:05:37.799Z,1006.72
2019-05-07T00:06:37.792Z,1006.71
2019-05-07T00:07:37.868Z,1006.73
2019-05-07T00:08:37.772Z,1006.72
2019-05-07T00:09:37.777Z,1006.69
2019-05-07T00:10:37.758Z,1006.72
2019-05-07T00:11:37.799Z,1006.72
2019-05-07T00:12:37.742Z,1006.66
2019-05-07T00:13:37.735Z,1006.70
2019-05-07T00:14:37.764Z,1006.73
2019-05-07T00:15:37.716Z,1006.68
2019-05-07T00:16:37.716Z,1006.67
2019-05-07T00:17:37.726Z,1006.65
2019-05-07T00:18:37.737Z,1006.60
2019-05-07T00:19:37.685Z,1006.57
2019-05-07T00:20:37.688Z,1006.62
2019-05-07T00:21:37.673Z,1006.67
2019-05-07T00:22:37.658Z,1006.63
2019-05-07T00:23:37.683Z,1006.61
2019-05-07T00:24:37.649Z,1006.63
2019-05-07T00:25:37.642Z,1006.64
2019-05-07T00:26:37.629Z,1006.61
2019-05-07T00:27:37.686Z,1006.65
2019-05-07T00:28:37.614Z,1006.59
2019-05-07T00:29:37.622Z,1006.56
2019-05-07T00:30:37.597Z,1006.57
2019-05-07T00:31:37.592Z,1006.58
2019-05-07T00:32:37.586Z,1006.54
2019-05-07T00:33:37.573Z,1006.58
2019-05-07T00:34:37.587Z,1006.55
2019-05-07T00:35:37.691Z,1006.60
2019-05-07T00:36:37.583Z,1006.60
2019-05-07T00:37:37.562Z,1006.58
2019-05-07T00:38:37.554Z,1006.58
2019-05-07T00:39:37.591Z,1006.58
2019-05-07T00:40:37.551Z,1006.54
2019-05-07T00:41:37.551Z,1006.55
2019-05-07T00:42:37.525Z,1006.57
2019-05-07T00:43:37.520Z,1006.55
2019-05-07T00:44:37.506Z,1006.56
2019-05-07T00:45:37.503Z,1006.53
2019-05-07T00:46:37.534Z,1006.56
2019-05-07T00:47:37.578Z,1006.54
2019-05-07T00:48:37.477Z,1006.54
2019-05-07T00:49:37.586Z,1006.51
2019-05-07T00:50:37.474Z,1006.49
2019-05-07T00:51:37.594Z,1006.49
2019-05-07T00:52:37.443Z,1006.51
2019-05-07T00:53:37.515Z,1006.48
2019-05-07T00:54:37.448Z,1006.50
2019-05-07T00:55:37.500Z,1006.48
2019-05-07T00:56:37.434Z,1006.45
2019-05-07T00:57:37.425Z,1006.43
2019-05-07T00:58:37.432Z,1006.41
2019-05-07T00:59:37.434Z,1006.37
2019-05-07T01:00:37.459Z,1006.38
2019-05-07T01:01:37.398Z,1006.32
2019-05-07T01:02:37.397Z,1006.34
2019-05-07T01:03:37.378Z,1006.35
2019-05-07T01:04:37.404Z,1006.33
2019-05-07T01:05:37.389Z,1006.31
2019-05-07T01:06:37.362Z,1006.33
2019-05-07T01:07:37.354Z,1006.30
2019-05-07T01:08:37.342Z,1006.28
2019-05-07T01:09:37.339Z,1006.26
2019-05-07T01:10:37.330Z,1006.29
2019-05-07T01:11:37.371Z,1006.23
2019-05-07T01:12:37.321Z,1006.30
2019-05-07T01:13:37.323Z,1006.29
2019-05-07T01:14:37.322Z,1006.29
2019-05-07T01:15:37.338Z,1006.26
2019-05-07T01:16:37.314Z,1006.27
2019-05-07T01:17:37.308Z,1006.25
2019-05-07T01:18:37.285Z,1006.22
2019-05-07T01:19:37.275Z,1006.21
2019-05-07T01:20:37.269Z,1006.19
2019-05-07T01:21:37.276Z,1006.18
2019-05-07T01:22:37.277Z,1006.18
2019-05-07T01:23:37.270Z,1006.12
2019-05-07T01:24:37.252Z,1006.15
2019-05-07T01:25:37.232Z,1006.10
2019-05-07T01:26:37.221Z,1006.15
2019-05-07T01:27:37.216Z,1006.12
2019-05-07T01:28:37.255Z,1006.12
2019-05-07T01:29:37.245Z,1006.13
2019-05-07T01:30:37.220Z,1006.19
2019-05-07T01:31:37.207Z,1006.18
2019-05-07T01:32:37.209Z,1006.16
2019-05-07T01:33:37.183Z,1006.15
2019-05-07T01:34:37.182Z,1006.17
2019-05-07T01:35:37.285Z,1006.19
2019-05-07T01:36:37.165Z,1006.10
2019-05-07T01:37:37.156Z,1006.15
2019-05-07T01:38:37.147Z,1006.14
2019-05-07T01:39:37.143Z,1006.08
2019-05-07T01:40:37.157Z,1006.08
2019-05-07T01:41:37.140Z,1006.08
2019-05-07T01:42:37.118Z,1006.16
2019-05-07T01:43:37.113Z,1006.09
2019-05-07T01:44:37.102Z,1006.05
2019-05-07T01:45:46.498Z,1006.09
2019-05-07T01:46:38.128Z,1006.03
2019-05-07T01:47:37.079Z,1006.01
2019-05-07T01:48:37.083Z,1006.07
2019-05-07T01:49:37.098Z,1006.02
2019-05-07T01:50:37.068Z,1006.05
2019-05-07T01:51:37.075Z,1006.14
2019-05-07T01:52:37.077Z,1006.08
2019-05-07T01:53:37.049Z,1006.04
2019-05-07T01:54:37.054Z,1006.08
2019-05-07T01:55:37.036Z,1006.11
2019-05-07T01:56:37.024Z,1006.08
2019-05-07T01:57:37.014Z,1006.10
2019-05-07T01:58:37.024Z,1006.05
2019-05-07T01:59:37.016Z,1006.06
2019-05-07T02:00:36.988Z,1006.05
2019-05-07T02:01:36.986Z,1006.09
2019-05-07T02:02:36.983Z,1006.11
2019-05-07T02:03:36.977Z,1006.07
2019-05-07T02:04:36.986Z,1006.04
2019-05-07T02:05:36.966Z,1006.06
2019-05-07T02:06:36.968Z,1006.09
2019-05-07T02:07:36.977Z,1006.09
2019-05-07T02:08:36.974Z,1006.10
2019-05-07T02:09:36.971Z,1006.10
2019-05-07T02:10:37.040Z,1006.06
2019-05-07T02:11:36.948Z,1006.06
2019-05-07T02:12:36.944Z,1006.06
2019-05-07T02:13:36.938Z,1006.07
2019-05-07T02:14:37.026Z,1006.10
2019-05-07T02:15:36.926Z,1006.08
2019-05-07T02:16:36.996Z,1006.12
2019-05-07T02:17:36.900Z,1006.13
2019-05-07T02:18:36.926Z,1006.08
2019-05-07T02:19:36.918Z,1006.06
2019-05-07T02:20:36.889Z,1006.08
2019-05-07T02:21:36.904Z,1006.03
2019-05-07T02:22:36.967Z,1006.09
2019-05-07T02:23:36.873Z,1006.08
2019-05-07T02:24:36.867Z,1006.11
2019-05-07T02:25:36.902Z,1006.04
2019-05-07T02:26:36.848Z,1006.04
2019-05-07T02:27:36.836Z,1006.04
2019-05-07T02:28:36.881Z,1006.06
2019-05-07T02:29:38.269Z,1006.09
2019-05-07T02:30:36.821Z,1006.01
2019-05-07T02:31:36.841Z,1006.06
2019-05-07T02:32:36.820Z,1006.05
2019-05-07T02:33:36.822Z,1006.02
2019-05-07T02:34:36.846Z,1006.07
2019-05-07T02:35:36.805Z,1006.01
2019-05-07T02:36:36.786Z,1006.03
2019-05-07T02:37:48.700Z,1006.01
2019-05-07T02:38:37.771Z,1006.00
2019-05-07T02:39:36.786Z,1006.03
2019-05-07T02:40:36.776Z,1006.04
2019-05-07T02:41:36.744Z,1006.03
2019-05-07T02:42:36.739Z,1006.00
2019-05-07T02:43:36.736Z,1005.98
2019-05-07T02:44:36.744Z,1005.99
2019-05-07T02:45:36.715Z,1005.99
2019-05-07T02:46:36.818Z,1006.00
2019-05-07T02:47:36.724Z,1006.03
2019-05-07T02:48:36.696Z,1006.05
2019-05-07T02:49:36.689Z,1006.03
2019-05-07T02:50:36.690Z,1006.00
2019-05-07T02:51:36.671Z,1005.97
2019-05-07T02:52:36.720Z,1006.04
2019-05-07T02:53:36.658Z,1006.04
2019-05-07T02:54:36.665Z,1006.02
2019-05-07T02:55:36.660Z,1006.00
2019-05-07T02:56:36.651Z,1006.01
2019-05-07T02:57:36.680Z,1006.05
2019-05-07T02:58:36.661Z,1006.05
2019-05-07T02:59:36.638Z,1006.07
2019-05-07T03:00:36.603Z,1006.10
2019-05-07T03:01:36.602Z,1006.09
2019-05-07T03:02:36.591Z,1006.09
2019-05-07T03:03:36.660Z,1006.09
2019-05-07T03:04:36.596Z,1006.06
2019-05-07T03:05:36.609Z,1006.15
2019-05-07T03:06:36.598Z,1006.11
2019-05-07T03:07:36.605Z,1006.15
2019-05-07T03:08:36.577Z,1006.11
2019-05-07T03:09:36.587Z,1006.10
2019-05-07T03:10:36.667Z,1006.12
2019-05-07T03:11:36.570Z,1006.13
2019-05-07T03:12:36.551Z,1006.15
2019-05-07T03:13:36.541Z,1006.14
2019-05-07T03:14:36.539Z,1006.15
2019-05-07T03:15:36.522Z,1006.13
2019-05-07T03:16:43.694Z,1006.15
2019-05-07T03:17:37.534Z,1006.14
2019-05-07T03:18:36.499Z,1006.19
2019-05-07T03:19:36.502Z,1006.16
2019-05-07T03:20:36.513Z,1006.20
2019-05-07T03:21:36.546Z,1006.15
2019-05-07T03:22:36.576Z,1006.18
2019-05-07T03:23:36.501Z,1006.18
2019-05-07T03:24:36.483Z,1006.22
2019-05-07T03:25:36.471Z,1006.20
2019-05-07T03:26:36.469Z,1006.24
2019-05-07T03:27:36.443Z,1006.22
2019-05-07T03:28:36.446Z,1006.16
2019-05-07T03:29:36.482Z,1006.16
2019-05-07T03:30:36.747Z,1006.19
2019-05-07T03:31:36.878Z,1006.14
2019-05-07T03:32:39.026Z,1006.13
2019-05-07T03:33:37.104Z,1006.17
2019-05-07T03:34:37.386Z,1006.12
2019-05-07T03:35:37.897Z,1006.09
2019-05-07T03:36:36.388Z,1006.12
2019-05-07T03:37:36.736Z,1006.13
2019-05-07T03:38:36.390Z,1006.13
2019-05-07T03:39:36.356Z,1006.09
2019-05-07T03:40:36.360Z,1006.17
2019-05-07T03:41:36.342Z,1006.11
2019-05-07T03:42:36.339Z,1006.15
2019-05-07T03:43:36.384Z,1006.13
2019-05-07T03:44:36.331Z,1006.10
2019-05-07T03:45:36.319Z,1006.12
2019-05-07T03:46:53.278Z,1006.12
2019-05-07T03:47:37.293Z,1006.14
2019-05-07T03:48:36.300Z,1006.12
2019-05-07T03:49:36.285Z,1006.14
2019-05-07T03:50:36.274Z,1006.13
2019-05-07T03:51:36.298Z,1006.09
2019-05-07T03:52:36.372Z,1006.09
2019-05-07T03:53:36.268Z,1006.12
2019-05-07T03:54:36.280Z,1006.12
2019-05-07T03:55:36.254Z,1006.14
2019-05-07T03:56:36.282Z,1006.11
2019-05-07T03:57:36.234Z,1006.13
2019-05-07T03:58:36.236Z,1006.06
2019-05-07T03:59:36.258Z,1006.09
2019-05-07T04:00:36.232Z,1006.11
2019-05-07T04:01:36.229Z,1006.11
2019-05-07T04:02:36.219Z,1006.06
2019-05-07T04:03:36.214Z,1006.07
2019-05-07T04:04:36.248Z,1006.14
2019-05-07T04:05:36.207Z,1006.14
2019-05-07T04:06:36.188Z,1006.05
2019-05-07T04:07:36.189Z,1006.12
2019-05-07T04:08:36.171Z,1006.10
2019-05-07T04:09:36.197Z,1006.05
2019-05-07T04:10:36.215Z,1006.08
2019-05-07T04:11:36.162Z,1006.07
2019-05-07T04:12:36.159Z,1006.10
2019-05-07T04:13:36.156Z,1006.05
2019-05-07T04:14:36.169Z,1006.15
2019-05-07T04:15:36.141Z,1006.10
2019-05-07T04:16:36.169Z,1006.12
2019-05-07T04:17:36.127Z,1006.10
2019-05-07T04:18:36.125Z,1006.11
2019-05-07T04:19:36.113Z,1006.10
2019-05-07T04:20:36.094Z,1006.16
2019-05-07T04:21:36.096Z,1006.09
2019-05-07T04:22:36.107Z,1006.14
2019-05-07T04:23:36.078Z,1006.18
2019-05-07T04:24:36.089Z,1006.23
2019-05-07T04:25:36.081Z,1006.22
2019-05-07T04:26:36.068Z,1006.25
2019-05-07T04:27:36.061Z,1006.21
2019-05-07T04:28:36.101Z,1006.27
2019-05-07T04:29:36.079Z,1006.23
2019-05-07T04:30:36.046Z,1006.19
2019-05-07T04:31:36.072Z,1006.27
2019-05-07T04:32:36.047Z,1006.23
2019-05-07T04:33:36.025Z,1006.27
2019-05-07T04:34:36.027Z,1006.17
2019-05-07T04:35:36.055Z,1006.20
2019-05-07T04:36:36.003Z,1006.21
2019-05-07T04:37:36.016Z,1006.13
2019-05-07T04:38:35.993Z,1006.18
2019-05-07T04:39:35.983Z,1006.16
2019-05-07T04:40:35.973Z,1006.14
2019-05-07T04:41:35.963Z,1006.11
2019-05-07T04:42:35.955Z,1006.18
2019-05-07T04:43:35.965Z,1006.15
2019-05-07T04:44:35.950Z,1006.13
2019-05-07T04:45:35.950Z,1006.16
2019-05-07T04:46:35.952Z,1006.15
2019-05-07T04:47:42.969Z,1006.15
2019-05-07T04:48:36.957Z,1006.17
2019-05-07T04:49:35.923Z,1006.17
2019-05-07T04:50:42.974Z,1006.12
2019-05-07T04:51:37.003Z,1006.13
2019-05-07T04:52:35.900Z,1006.16
2019-05-07T04:53:35.915Z,1006.17
2019-05-07T04:54:35.913Z,1006.16
2019-05-07T04:55:35.912Z,1006.19
2019-05-07T04:56:35.865Z,1006.14
2019-05-07T04:57:35.882Z,1006.21
2019-05-07T04:58:35.865Z,1006.23
2019-05-07T04:59:35.870Z,1006.20
2019-05-07T05:00:35.880Z,1006.22
2019-05-07T05:01:35.883Z,1006.25
2019-05-07T05:02:35.839Z,1006.22
2019-05-07T05:03:39.175Z,1006.22
2019-05-07T05:04:35.837Z,1006.21
2019-05-07T05:05:35.827Z,1006.23
2019-05-07T05:06:35.829Z,1006.20
2019-05-07T05:07:35.825Z,1006.21
2019-05-07T05:08:35.802Z,1006.22
2019-05-07T05:09:35.826Z,1006.20
2019-05-07T05:10:35.792Z,1006.15
2019-05-07T05:11:35.794Z,1006.10
2019-05-07T05:12:35.779Z,1006.10
2019-05-07T05:13:35.766Z,1006.13
2019-05-07T05:14:35.791Z,1006.13
2019-05-07T05:15:35.773Z,1006.14
2019-05-07T05:16:35.740Z,1006.13
2019-05-07T05:17:47.121Z,1006.15
2019-05-07T05:18:36.718Z,1006.12
2019-05-07T05:19:35.738Z,1006.19
2019-05-07T05:20:35.730Z,1006.13
2019-05-07T05:21:35.731Z,1006.12
2019-05-07T05:22:35.710Z,1006.16
2019-05-07T05:23:35.705Z,1006.14
2019-05-07T05:24:35.698Z,1006.17
2019-05-07T05:25:35.688Z,1006.18
2019-05-07T05:26:35.666Z,1006.17
2019-05-07T05:27:35.673Z,1006.19
2019-05-07T05:28:35.649Z,1006.19
2019-05-07T05:29:35.673Z,1006.16
2019-05-07T05:30:35.663Z,1006.17
2019-05-07T05:31:35.635Z,1006.21
2019-05-07T05:32:35.627Z,1006.16
2019-05-07T05:33:35.639Z,1006.18
2019-05-07T05:34:35.607Z,1006.22
2019-05-07T05:35:35.603Z,1006.21
2019-05-07T05:36:35.599Z,1006.19
2019-05-07T05:37:35.580Z,1006.22
2019-05-07T05:38:35.583Z,1006.17
2019-05-07T05:39:35.669Z,1006.21
2019-05-07T05:40:35.554Z,1006.26
2019-05-07T05:41:37.899Z,1006.25
2019-05-07T05:42:35.549Z,1006.23
2019-05-07T05:43:35.537Z,1006.24
2019-05-07T05:44:35.526Z,1006.22
2019-05-07T05:45:35.548Z,1006.19
2019-05-07T05:46:35.512Z,1006.22
2019-05-07T05:47:35.550Z,1006.21
2019-05-07T05:48:35.507Z,1006.23
2019-05-07T05:49:35.510Z,1006.20
2019-05-07T05:50:35.478Z,1006.29
2019-05-07T05:51:35.491Z,1006.18
2019-05-07T05:52:35.482Z,1006.23
2019-05-07T05:53:35.475Z,1006.18
2019-05-07T05:54:35.464Z,1006.23
2019-05-07T05:55:35.453Z,1006.17
2019-05-07T05:56:35.448Z,1006.22
2019-05-07T05:57:35.481Z,1006.16
2019-05-07T05:58:35.432Z,1006.20
2019-05-07T05:59:48.163Z,1006.25
2019-05-07T06:00:36.407Z,1006.24
2019-05-07T06:01:35.417Z,1006.27
2019-05-07T06:02:35.409Z,1006.27
2019-05-07T06:03:35.400Z,1006.23
2019-05-07T06:04:35.392Z,1006.25
2019-05-07T06:05:35.417Z,1006.23
2019-05-07T06:06:35.382Z,1006.26
2019-05-07T06:07:35.370Z,1006.28
2019-05-07T06:08:35.404Z,1006.21
2019-05-07T06:09:35.389Z,1006.24
2019-05-07T06:10:35.367Z,1006.24
2019-05-07T06:11:35.373Z,1006.22
2019-05-07T06:12:35.357Z,1006.20
2019-05-07T06:13:35.359Z,1006.20
2019-05-07T06:14:35.363Z,1006.17
2019-05-07T06:15:35.490Z,1006.18
2019-05-07T06:16:36.716Z,1006.11
2019-05-07T06:17:35.348Z,1006.19
2019-05-07T06:18:35.340Z,1006.15
2019-05-07T06:19:35.318Z,1006.19
2019-05-07T06:20:35.317Z,1006.24
2019-05-07T06:21:35.317Z,1006.18
2019-05-07T06:22:35.302Z,1006.12
2019-05-07T06:23:35.302Z,1006.15
2019-05-07T06:24:35.283Z,1006.18
2019-05-07T06:25:35.288Z,1006.21
2019-05-07T06:26:35.305Z,1006.22
2019-05-07T06:27:35.368Z,1006.19
2019-05-07T06:28:35.276Z,1006.17
2019-05-07T06:29:35.271Z,1006.19
2019-05-07T06:30:35.266Z,1006.21
2019-05-07T06:31:35.266Z,1006.22
2019-05-07T06:32:35.261Z,1006.20
2019-05-07T06:33:35.253Z,1006.22
2019-05-07T06:34:35.236Z,1006.22
2019-05-07T06:35:35.242Z,1006.26
2019-05-07T06:36:35.252Z,1006.22
2019-05-07T06:37:35.219Z,1006.25
2019-05-07T06:38:35.219Z,1006.23
2019-05-07T06:39:35.240Z,1006.27
2019-05-07T06:40:35.192Z,1006.25
2019-05-07T06:41:35.186Z,1006.20
2019-05-07T06:42:35.212Z,1006.18
2019-05-07T06:43:35.188Z,1006.20
2019-05-07T06:44:35.157Z,1006.21
2019-05-07T06:45:35.521Z,1006.21
2019-05-07T06:46:35.150Z,1006.23
2019-05-07T06:47:35.145Z,1006.17
2019-05-07T06:48:42.256Z,1006.20
2019-05-07T06:49:36.125Z,1006.24
2019-05-07T06:50:35.108Z,1006.27
2019-05-07T06:51:35.116Z,1006.23
2019-05-07T06:52:35.100Z,1006.22
2019-05-07T06:53:35.103Z,1006.27
2019-05-07T06:54:35.090Z,1006.15
2019-05-07T06:55:35.083Z,1006.24
2019-05-07T06:56:35.069Z,1006.26
2019-05-07T06:57:35.079Z,1006.21
2019-05-07T06:58:35.064Z,1006.23
2019-05-07T06:59:35.063Z,1006.26
2019-05-07T07:00:35.069Z,1006.27
2019-05-07T07:01:35.040Z,1006.20
2019-05-07T07:02:35.031Z,1006.18
2019-05-07T07:03:35.039Z,1006.25
2019-05-07T07:04:35.019Z,1006.18
2019-05-07T07:05:35.024Z,1006.22
2019-05-07T07:06:35.197Z,1006.24
2019-05-07T07:07:37.224Z,1006.20
2019-05-07T07:08:34.983Z,1006.16
2019-05-07T07:09:35.069Z,1006.21
2019-05-07T07:10:34.991Z,1006.24
2019-05-07T07:11:34.989Z,1006.21
2019-05-07T07:12:34.957Z,1006.19
2019-05-07T07:13:34.970Z,1006.21
2019-05-07T07:14:34.936Z,1006.16
2019-05-07T07:15:34.932Z,1006.21
2019-05-07T07:16:34.950Z,1006.15
2019-05-07T07:17:34.907Z,1006.16
2019-05-07T07:18:48.669Z,1006.20
2019-05-07T07:19:36.301Z,1006.17
2019-05-07T07:20:34.889Z,1006.17
2019-05-07T07:21:34.912Z,1006.19
2019-05-07T07:22:34.877Z,1006.13
2019-05-07T07:23:34.865Z,1006.15
2019-05-07T07:24:34.866Z,1006.12
2019-05-07T07:25:34.863Z,1006.19
2019-05-07T07:26:34.844Z,1006.12
2019-05-07T07:27:34.853Z,1006.14
2019-05-07T07:28:34.823Z,1006.18
2019-05-07T07:29:34.823Z,1006.21
2019-05-07T07:30:34.815Z,1006.17
2019-05-07T07:31:34.802Z,1006.17
2019-05-07T07:32:34.794Z,1006.17
2019-05-07T07:33:34.808Z,1006.11
2019-05-07T07:34:34.782Z,1006.11
2019-05-07T07:35:34.790Z,1006.18
2019-05-07T07:36:34.771Z,1006.13
2019-05-07T07:37:34.769Z,1006.17
2019-05-07T07:38:34.763Z,1006.14
2019-05-07T07:39:34.757Z,1006.15
2019-05-07T07:40:34.752Z,1006.20
2019-05-07T07:41:34.737Z,1006.18
2019-05-07T07:42:34.731Z,1006.20
2019-05-07T07:43:34.723Z,1006.13
2019-05-07T07:44:34.715Z,1006.16
2019-05-07T07:45:34.746Z,1006.17
2019-05-07T07:46:34.705Z,1006.14
2019-05-07T07:47:34.699Z,1006.10
2019-05-07T07:48:34.687Z,1006.16
2019-05-07T07:49:34.684Z,1006.09
2019-05-07T07:50:34.664Z,1006.08
2019-05-07T07:51:41.521Z,1006.17
2019-05-07T07:52:35.669Z,1006.10
2019-05-07T07:53:35.543Z,1006.12
2019-05-07T07:54:34.631Z,1006.14
2019-05-07T07:55:34.659Z,1006.07
2019-05-07T07:56:48.897Z,1006.13
2019-05-07T07:57:35.663Z,1006.09
2019-05-07T07:58:34.607Z,1006.07
2019-05-07T07:59:34.604Z,1006.13
2019-05-07T08:00:34.590Z,1006.10
2019-05-07T08:01:34.593Z,1006.12
2019-05-07T08:02:34.590Z,1006.05
2019-05-07T08:03:34.596Z,1006.04
2019-05-07T08:04:34.559Z,1006.03
2019-05-07T08:05:34.551Z,1005.98
2019-05-07T08:06:34.565Z,1006.01
2019-05-07T08:07:34.545Z,1006.04
2019-05-07T08:08:34.535Z,1006.04
2019-05-07T08:09:34.694Z,1006.00
2019-05-07T08:10:34.538Z,1006.05
2019-05-07T08:11:34.510Z,1006.05
2019-05-07T08:12:34.501Z,1006.01
2019-05-07T08:13:34.509Z,1006.03
2019-05-07T08:14:34.501Z,1006.02
2019-05-07T08:15:34.511Z,1006.02
2019-05-07T08:16:34.470Z,1005.92
2019-05-07T08:17:34.469Z,1006.03
2019-05-07T08:18:34.501Z,1006.00
2019-05-07T08:19:34.450Z,1005.94
2019-05-07T08:20:34.494Z,1005.95
2019-05-07T08:21:34.497Z,1005.95
2019-05-07T08:22:34.450Z,1005.96
2019-05-07T08:23:34.448Z,1005.90
2019-05-07T08:24:34.437Z,1005.90
2019-05-07T08:25:34.431Z,1005.89
2019-05-07T08:26:34.417Z,1005.88
2019-05-07T08:27:34.436Z,1005.84
2019-05-07T08:28:34.403Z,1005.83
2019-05-07T08:29:34.395Z,1005.82
2019-05-07T08:30:34.433Z,1005.84
2019-05-07T08:31:34.390Z,1005.79
2019-05-07T08:32:34.381Z,1005.79
2019-05-07T08:33:34.462Z,1005.80
2019-05-07T08:34:34.364Z,1005.79
2019-05-07T08:35:34.349Z,1005.81
2019-05-07T08:36:34.343Z,1005.78
2019-05-07T08:37:34.335Z,1005.73
2019-05-07T08:38:34.328Z,1005.81
2019-05-07T08:39:34.325Z,1005.84
2019-05-07T08:40:34.311Z,1005.78
2019-05-07T08:41:34.305Z,1005.75
2019-05-07T08:42:34.293Z,1005.74
2019-05-07T08:43:34.283Z,1005.78
2019-05-07T08:44:34.278Z,1005.75
2019-05-07T08:45:34.407Z,1005.74
2019-05-07T08:46:34.269Z,1005.79
2019-05-07T08:47:34.278Z,1005.64
2019-05-07T08:48:34.244Z,1005.75
2019-05-07T08:49:39.551Z,1005.71
2019-05-07T08:50:35.253Z,1005.71
2019-05-07T08:51:34.229Z,1005.74
2019-05-07T08:52:34.228Z,1005.73
2019-05-07T08:53:34.247Z,1005.77
2019-05-07T08:54:34.201Z,1005.69
2019-05-07T08:55:34.210Z,1005.62
2019-05-07T08:56:34.190Z,1005.67
2019-05-07T08:57:34.193Z,1005.62
2019-05-07T08:58:34.191Z,1005.56
2019-05-07T08:59:34.197Z,1005.61
2019-05-07T09:00:34.180Z,1005.63
2019-05-07T09:01:34.164Z,1005.65
2019-05-07T09:02:34.170Z,1005.72
2019-05-07T09:03:34.154Z,1005.64
2019-05-07T09:04:34.147Z,1005.61
2019-05-07T09:05:34.137Z,1005.64
2019-05-07T09:06:34.135Z,1005.65
2019-05-07T09:07:34.121Z,1005.57
2019-05-07T09:08:34.152Z,1005.55
2019-05-07T09:09:34.108Z,1005.61
2019-05-07T09:10:34.091Z,1005.61
2019-05-07T09:11:34.087Z,1005.56
2019-05-07T09:12:34.080Z,1005.56
2019-05-07T09:13:34.079Z,1005.53
2019-05-07T09:14:34.077Z,1005.54
2019-05-07T09:15:34.085Z,1005.53
2019-05-07T09:16:34.062Z,1005.51
2019-05-07T09:17:34.050Z,1005.53
2019-05-07T09:18:34.042Z,1005.51
2019-05-07T09:19:47.343Z,1005.52
2019-05-07T09:20:35.110Z,1005.47
2019-05-07T09:21:34.013Z,1005.52
2019-05-07T09:22:34.045Z,1005.48
2019-05-07T09:23:33.991Z,1005.51
2019-05-07T09:24:33.987Z,1005.46
2019-05-07T09:25:33.972Z,1005.48
2019-05-07T09:26:33.985Z,1005.50
2019-05-07T09:27:33.967Z,1005.52
2019-05-07T09:28:33.954Z,1005.48
2019-05-07T09:29:33.952Z,1005.54
2019-05-07T09:30:33.934Z,1005.51
2019-05-07T09:31:34.000Z,1005.55
2019-05-07T09:32:33.967Z,1005.52
2019-05-07T09:33:33.927Z,1005.43
2019-05-07T09:34:33.909Z,1005.45
2019-05-07T09:35:33.930Z,1005.47
2019-05-07T09:36:34.007Z,1005.40
2019-05-07T09:37:33.917Z,1005.46
2019-05-07T09:38:33.960Z,1005.34
2019-05-07T09:39:33.871Z,1005.38
2019-05-07T09:40:33.854Z,1005.41
2019-05-07T09:41:33.874Z,1005.43
2019-05-07T09:42:33.858Z,1005.40
2019-05-07T09:43:33.837Z,1005.42
2019-05-07T09:44:33.844Z,1005.40
2019-05-07T09:45:33.846Z,1005.35
2019-05-07T09:46:33.847Z,1005.36
2019-05-07T09:47:33.822Z,1005.37
2019-05-07T09:48:33.993Z,1005.33
2019-05-07T09:49:33.803Z,1005.31
2019-05-07T09:50:33.831Z,1005.36
2019-05-07T09:51:33.793Z,1005.31
2019-05-07T09:52:33.785Z,1005.29
2019-05-07T09:53:33.819Z,1005.26
2019-05-07T09:54:33.778Z,1005.34
2019-05-07T09:55:33.858Z,1005.31
2019-05-07T09:56:33.779Z,1005.32
2019-05-07T09:57:34.733Z,1005.26
2019-05-07T09:58:38.477Z,1005.26
2019-05-07T09:59:34.723Z,1005.27
2019-05-07T10:00:33.724Z,1005.24
2019-05-07T10:01:33.729Z,1005.24
2019-05-07T10:02:33.788Z,1005.19
2019-05-07T10:03:33.697Z,1005.18
2019-05-07T10:04:33.694Z,1005.25
2019-05-07T10:05:33.697Z,1005.28
2019-05-07T10:06:33.666Z,1005.21
2019-05-07T10:07:33.669Z,1005.22
2019-05-07T10:08:33.668Z,1005.15
2019-05-07T10:09:33.656Z,1005.16
2019-05-07T10:10:33.645Z,1005.23
2019-05-07T10:11:33.644Z,1005.15
2019-05-07T10:12:33.659Z,1005.14
2019-05-07T10:13:33.619Z,1005.16
2019-05-07T10:14:33.635Z,1005.14
2019-05-07T10:15:33.619Z,1005.05
2019-05-07T10:16:33.605Z,1005.03
2019-05-07T10:17:33.591Z,1005.03
2019-05-07T10:18:33.606Z,1005.08
2019-05-07T10:19:33.728Z,1005.09
2019-05-07T10:20:33.579Z,1005.07
2019-05-07T10:21:33.558Z,1005.07
2019-05-07T10:22:33.567Z,1005.06
2019-05-07T10:23:33.540Z,1004.95
2019-05-07T10:24:33.541Z,1004.99
2019-05-07T10:25:33.526Z,1005.02
2019-05-07T10:26:33.523Z,1005.03
2019-05-07T10:27:33.520Z,1004.98
2019-05-07T10:28:33.500Z,1004.99
2019-05-07T10:29:33.502Z,1004.93
2019-05-07T10:30:33.485Z,1004.92
2019-05-07T10:31:33.486Z,1004.96
2019-05-07T10:32:33.560Z,1004.90
2019-05-07T10:33:33.472Z,1004.97
2019-05-07T10:34:33.472Z,1004.92
2019-05-07T10:35:33.790Z,1004.94
2019-05-07T10:36:33.453Z,1004.94
2019-05-07T10:37:33.450Z,1004.94
2019-05-07T10:38:33.465Z,1004.91
2019-05-07T10:39:33.447Z,1004.84
2019-05-07T10:40:33.421Z,1004.89
2019-05-07T10:41:33.409Z,1004.88
2019-05-07T10:42:33.402Z,1004.86
2019-05-07T10:43:33.401Z,1004.85
2019-05-07T10:44:33.420Z,1004.85
2019-05-07T10:45:33.398Z,1004.85
2019-05-07T10:46:33.401Z,1004.84
2019-05-07T10:47:33.390Z,1004.82
2019-05-07T10:48:33.415Z,1004.86
2019-05-07T10:49:33.397Z,1004.82
2019-05-07T10:50:38.974Z,1004.86
2019-05-07T10:51:34.362Z,1004.84
2019-05-07T10:52:33.354Z,1004.80
2019-05-07T10:53:33.355Z,1004.81
2019-05-07T10:54:33.339Z,1004.83
2019-05-07T10:55:33.331Z,1004.79
2019-05-07T10:56:33.351Z,1004.85
2019-05-07T10:57:33.315Z,1004.82
2019-05-07T10:58:33.305Z,1004.77
2019-05-07T10:59:33.308Z,1004.73
2019-05-07T11:00:33.296Z,1004.71
2019-05-07T11:01:33.303Z,1004.79
2019-05-07T11:02:33.290Z,1004.76
2019-05-07T11:03:33.269Z,1004.80
2019-05-07T11:04:42.173Z,1004.73
2019-05-07T11:05:34.254Z,1004.76
2019-05-07T11:06:33.246Z,1004.78
2019-05-07T11:07:33.270Z,1004.73
2019-05-07T11:08:33.237Z,1004.72
2019-05-07T11:09:33.220Z,1004.71
2019-05-07T11:10:33.301Z,1004.72
2019-05-07T11:11:33.208Z,1004.64
2019-05-07T11:12:33.208Z,1004.65
2019-05-07T11:13:33.197Z,1004.62
2019-05-07T11:14:33.303Z,1004.64
2019-05-07T11:15:33.194Z,1004.57
2019-05-07T11:16:33.178Z,1004.60
2019-05-07T11:17:33.161Z,1004.60
2019-05-07T11:18:33.154Z,1004.62
2019-05-07T11:19:33.168Z,1004.62
2019-05-07T11:20:45.669Z,1004.57
2019-05-07T11:21:34.141Z,1004.57
2019-05-07T11:22:33.134Z,1004.55
2019-05-07T11:23:33.120Z,1004.53
2019-05-07T11:24:33.125Z,1004.57
2019-05-07T11:25:33.093Z,1004.51
2019-05-07T11:26:33.179Z,1004.58
2019-05-07T11:27:33.205Z,1004.51
2019-05-07T11:28:33.106Z,1004.49
2019-05-07T11:29:36.233Z,1004.52
2019-05-07T11:30:33.055Z,1004.49
2019-05-07T11:31:33.324Z,1004.48
2019-05-07T11:32:33.046Z,1004.51
2019-05-07T11:33:33.032Z,1004.43
2019-05-07T11:34:33.021Z,1004.38
2019-05-07T11:35:33.019Z,1004.43
2019-05-07T11:36:34.467Z,1004.35
2019-05-07T11:37:33.098Z,1004.39
2019-05-07T11:38:33.477Z,1004.33
2019-05-07T11:39:33.255Z,1004.31
2019-05-07T11:40:34.777Z,1004.33
2019-05-07T11:41:32.990Z,1004.34
2019-05-07T11:42:32.956Z,1004.33
2019-05-07T11:43:32.950Z,1004.33
2019-05-07T11:44:32.949Z,1004.31
2019-05-07T11:45:32.936Z,1004.27
2019-05-07T11:46:33.041Z,1004.27
2019-05-07T11:47:32.926Z,1004.26
2019-05-07T11:48:36.223Z,1004.28
2019-05-07T11:49:32.931Z,1004.27
2019-05-07T11:50:33.093Z,1004.30
2019-05-07T11:51:33.367Z,1004.18
2019-05-07T11:52:35.601Z,1004.24
2019-05-07T11:53:32.952Z,1004.18
2019-05-07T11:54:32.875Z,1004.24
2019-05-07T11:55:32.853Z,1004.28
2019-05-07T11:56:33.013Z,1004.18
2019-05-07T11:57:32.838Z,1004.25
2019-05-07T11:58:32.829Z,1004.20
2019-05-07T11:59:32.929Z,1004.21
2019-05-07T12:00:32.831Z,1004.14
2019-05-07T12:01:43.478Z,1004.13
2019-05-07T12:02:33.810Z,1004.14
2019-05-07T12:03:32.804Z,1004.15
2019-05-07T12:04:32.781Z,1004.14
2019-05-07T12:05:33.317Z,1004.20